Briefing drone pour Valence (LFLU)

Rechercher une autre localisation

Conditions de vol :


Nous sommes le : Mercredi 30 novembre 2022
Il est 19:32 UTC (20:32 LT)

Lever de soleil : 06:30 UTC (07:30 LT)
Coucher de soleil : 16:27 UTC (17:27 LT)

Météo

L'essentiel des conditions de vol

VIGILANCE MÉTÉO FRANCE - Drôme (26)
Pas de vigilances particulieres
METAR de LFLU
LFLU 301800Z AUTO 01007KT 9999 OVC018 08/06 Q1017

Date d'émission: 30/11/2022
Heure d'émission: 18:00 UTC
Vent: 010° pour 7 KT (13 km/h)
Visibilité horizontale: > 10 km
Plafond :
- Couvert à 1800ft (549m)
Température: 8 °C
Point de rosée: 6 °C
Humidité: 87%
Pression (QNH): 1017 hPa
Prévision 24h pour Valence
Vent : 2° pour 5 KT (18 km/h)
Temperature Maxi: 7 °C
Temperature Min: 7 °C
Humidité : 75%
Condition : Nuageux



Warning: count(): Parameter must be an array or an object that implements Countable in /homepages/6/d509196549/htdocs/droneoxygene/briefing.php on line 743
WEBCAM POUR VALENCE

Réglementation

Voler en sécurité

CARTES AERONAUTIQUE 1/500.000
CARTE AZBA (Reseau basse altitude)
CARTES VAC (LFLU)
SUP AIP




Chargement des AIP...
NOTAM (VALENCE + Terrain à proximité / FIR )




Chargement des NOTAMS...
CONTACT PREFECTURE 26
Drôme (26) : ddt-satem@drome.gouv.fr


Avertissement : Les données mises à disposition sont indicatives. Oxygène Drone ne pourra être tenu responsable de dégâts causés aux biens et aux personnes.